Time;durP1;ratioP1;P1;durP2;ratioP2;P2;SDS_P1;SDS_P2;PMS_P1;PMS_P2;Temp;Humidity;BMP_temperature;BMP_pressure;BME280_temperature;BME280_humidity;BME280_pressure;Samples;Min_cycle;Max_cycle;Signal;HPM_P1;HPM_P2
2022/01/11 00:00:21;;;;;;;86.70;18.10;;;;;;;-0.05;94.40;102870.16;5009558;28;20051;-73
2022/01/11 00:02:48;;;;;;;77.72;18.67;;;;;;;-0.04;94.35;102880.75;5001369;28;20021;-73
2022/01/11 00:05:22;;;;;;;69.72;17.27;;;;;;;-0.02;94.79;102881.63;4989647;28;20045;-74
2022/01/11 00:07:48;;;;;;;51.35;16.25;;;;;;;-0.02;94.71;102892.19;5007748;28;20382;-74
2022/01/11 00:10:21;;;;;;;40.55;17.13;;;;;;;-0.01;94.44;102901.03;4989901;28;20507;-74
2022/01/11 00:12:46;;;;;;;48.95;18.80;;;;;;;0.01;94.61;102903.66;4990125;28;20061;-74
2022/01/11 00:15:12;;;;;;;61.05;18.20;;;;;;;0.00;94.28;102905.44;5007493;28;20042;-73
2022/01/11 00:17:37;;;;;;;43.50;17.65;;;;;;;0.02;94.57;102908.09;5024323;28;20033;-73
2022/01/11 00:20:04;;;;;;;46.35;17.48;;;;;;;0.01;94.96;102908.97;5027862;28;20021;-73
2022/01/11 00:22:32;;;;;;;42.95;17.23;;;;;;;0.03;94.80;102904.53;5006680;28;20025;-73
2022/01/11 00:24:58;;;;;;;42.15;18.42;;;;;;;0.03;94.60;102896.63;5007595;28;20025;-73
2022/01/11 00:27:23;;;;;;;39.70;16.63;;;;;;;0.08;94.84;102897.53;4991025;28;20584;-73
2022/01/11 00:29:51;;;;;;;39.00;19.38;;;;;;;0.08;94.97;102901.03;5007847;28;20037;-73
2022/01/11 00:32:32;;;;;;;48.40;19.33;;;;;;;0.08;94.90;102900.16;5008948;28;20034;-73
2022/01/11 00:34:58;;;;;;;63.97;19.42;;;;;;;0.08;95.31;102900.16;4991808;28;20034;-73
2022/01/11 00:37:25;;;;;;;38.47;17.50;;;;;;;0.08;94.49;102889.59;4991123;28;20038;-73
2022/01/11 00:39:52;;;;;;;36.63;18.48;;;;;;;0.09;94.77;102893.97;4974206;28;20121;-73
2022/01/11 00:42:20;;;;;;;46.53;18.63;;;;;;;0.10;95.03;102888.72;4974813;28;20036;-73
2022/01/11 00:44:45;;;;;;;39.92;17.10;;;;;;;0.11;94.53;102894.88;5010820;28;20453;-73
2022/01/11 00:47:11;;;;;;;35.33;18.58;;;;;;;0.12;94.82;102891.38;5024407;28;20037;-73
2022/01/11 00:49:39;;;;;;;35.97;18.38;;;;;;;0.14;94.52;102886.97;5031438;28;20036;-73
2022/01/11 00:52:05;;;;;;;35.13;19.20;;;;;;;0.13;94.14;102883.44;5013299;28;20040;-73
2022/01/11 00:54:30;;;;;;;33.78;17.67;;;;;;;0.15;94.67;102883.44;4993146;28;20680;-73
2022/01/11 00:56:56;;;;;;;37.28;18.80;;;;;;;0.16;94.57;102886.09;5011223;28;20359;-73
2022/01/11 00:59:21;;;;;;;36.67;18.95;;;;;;;0.19;94.38;102890.53;5010341;28;20107;-73
2022/01/11 01:01:46;;;;;;;37.90;17.95;;;;;;;0.20;94.22;102886.97;4995820;28;20040;-73
2022/01/11 01:04:11;;;;;;;38.50;18.45;;;;;;;0.23;94.32;102881.69;4992904;28;20029;-73
2022/01/11 01:06:41;;;;;;;32.85;17.92;;;;;;;0.24;94.29;102880.81;5011067;28;20044;-73
2022/01/11 01:09:07;;;;;;;35.85;18.90;;;;;;;0.27;94.09;102885.25;5009838;28;20034;-73
2022/01/11 01:11:32;;;;;;;35.05;19.50;;;;;;;0.28;93.60;102897.56;4992175;28;20517;-73
2022/01/11 01:13:59;;;;;;;38.22;20.33;;;;;;;0.27;93.49;102901.13;4990636;28;20080;-73
2022/01/11 01:16:24;;;;;;;39.67;18.77;;;;;;;0.25;93.85;102903.75;5017215;28;20374;-74
2022/01/11 01:18:50;;;;;;;36.55;18.58;;;;;;;0.25;93.82;102901.13;4998167;28;20030;-74
2022/01/11 01:21:15;;;;;;;37.88;19.98;;;;;;;0.26;93.76;102897.56;4992609;28;20025;-74
2022/01/11 01:23:41;;;;;;;39.50;22.10;;;;;;;0.27;93.49;102899.34;4992229;28;20621;-74
2022/01/11 01:26:06;;;;;;;39.55;20.50;;;;;;;0.25;93.40;102895.81;4992721;28;20036;-74
2022/01/11 01:28:31;;;;;;;38.83;19.40;;;;;;;0.26;93.56;102894.91;5009247;28;20501;-74
2022/01/11 01:31:01;;;;;;;59.80;22.10;;;;;;;0.25;93.81;102893.19;4998209;28;20021;-74
2022/01/11 01:33:30;;;;;;;43.42;20.08;;;;;;;0.27;93.38;102895.81;5029906;28;20059;-74
2022/01/11 01:36:01;;;;;;;42.85;23.02;;;;;;;0.26;93.27;102896.69;5024794;28;20026;-74
2022/01/11 01:38:31;;;;;;;35.80;20.27;;;;;;;0.25;92.97;102901.13;4991852;28;20021;-73
2022/01/11 01:41:03;;;;;;;37.85;21.00;;;;;;;0.28;93.31;102894.91;5010822;28;20021;-73
2022/01/11 01:43:29;;;;;;;46.50;22.92;;;;;;;0.28;92.91;102902.84;4992026;28;20026;-73
2022/01/11 01:45:59;;;;;;;40.03;22.55;;;;;;;0.25;92.80;102898.47;4992172;28;20109;-73
2022/01/11 01:48:24;;;;;;;41.43;21.77;;;;;;;0.24;92.84;102896.69;5009784;28;20041;-73
2022/01/11 01:50:51;;;;;;;39.90;18.92;;;;;;;0.25;93.14;102898.47;4991555;28;20089;-73
2022/01/11 01:53:17;;;;;;;38.45;20.45;;;;;;;0.25;93.32;102893.19;5009332;28;20049;-73
2022/01/11 01:55:45;;;;;;;40.60;21.35;;;;;;;0.26;93.22;102900.22;5007123;28;20029;-73
2022/01/11 01:58:12;;;;;;;38.75;19.60;;;;;;;0.25;92.71;102893.19;5024698;28;20092;-73
2022/01/11 02:00:42;;;;;;;41.15;21.00;;;;;;;0.24;92.74;102899.34;5011887;28;20021;-73
2022/01/11 02:03:12;;;;;;;40.97;19.48;;;;;;;0.23;92.47;102900.19;4997046;28;20378;-74
2022/01/11 02:05:39;;;;;;;37.15;19.95;;;;;;;0.24;92.58;102907.28;5029143;28;20380;-73
2022/01/11 02:08:06;;;;;;;35.85;18.95;;;;;;;0.25;92.51;102913.44;5028775;28;20039;-73
2022/01/11 02:10:31;;;;;;;40.00;21.42;;;;;;;0.25;92.38;102914.34;5011426;28;20144;-73
2022/01/11 02:13:00;;;;;;;37.85;18.65;;;;;;;0.22;92.45;102911.69;5011363;28;20136;-73
2022/01/11 02:15:26;;;;;;;35.70;18.70;;;;;;;0.25;92.61;102919.63;4992331;28;20030;-73
2022/01/11 02:17:52;;;;;;;39.67;18.67;;;;;;;0.22;92.50;102916.97;5001099;28;20083;-73
2022/01/11 02:20:17;;;;;;;41.08;19.25;;;;;;;0.20;92.34;102929.28;5011238;28;20509;-73
2022/01/11 02:22:43;;;;;;;35.03;17.23;;;;;;;0.19;92.99;102935.47;5008321;28;20025;-73
2022/01/11 02:25:08;;;;;;;36.95;17.73;;;;;;;0.19;92.56;102938.13;4991329;28;20029;-73
2022/01/11 02:27:34;;;;;;;37.38;18.48;;;;;;;0.20;92.38;102946.94;5009006;28;20085;-73
2022/01/11 02:29:59;;;;;;;37.13;18.15;;;;;;;0.19;92.46;102950.44;5009301;28;20100;-73
2022/01/11 02:32:25;;;;;;;39.70;19.58;;;;;;;0.17;92.67;102939.84;5026339;28;20037;-73
2022/01/11 02:34:50;;;;;;;36.70;18.80;;;;;;;0.16;92.63;102925.75;5011677;28;20033;-73
2022/01/11 02:37:15;;;;;;;39.30;19.23;;;;;;;0.19;92.53;102934.56;5019954;28;20145;-73
2022/01/11 02:39:44;;;;;;;35.45;17.38;;;;;;;0.16;92.47;102939.00;5009145;28;20072;-73
2022/01/11 02:42:10;;;;;;;37.27;20.53;;;;;;;0.14;92.22;102947.78;5008985;28;20088;-73
2022/01/11 02:44:35;;;;;;;36.83;17.73;;;;;;;0.14;92.14;102948.66;4991805;28;20438;-73
2022/01/11 02:47:00;;;;;;;37.65;18.75;;;;;;;0.17;92.25;102959.25;4997927;28;20125;-73
2022/01/11 02:49:26;;;;;;;36.35;18.40;;;;;;;0.17;91.97;102958.38;4990720;28;20453;-73
2022/01/11 02:51:51;;;;;;;37.75;18.48;;;;;;;0.16;92.28;102957.50;4992090;28;20037;-73
2022/01/11 02:54:16;;;;;;;39.50;20.15;;;;;;;0.17;92.02;102963.66;4991263;28;20080;-73
2022/01/11 02:56:42;;;;;;;39.13;19.75;;;;;;;0.15;92.00;102957.50;5007456;28;20140;-73
2022/01/11 02:59:07;;;;;;;38.17;19.73;;;;;;;0.16;92.06;102967.16;5008747;28;20393;-73
2022/01/11 03:01:32;;;;;;;36.83;19.77;;;;;;;0.14;92.42;102964.53;5001189;28;20037;-73
2022/01/11 03:03:58;;;;;;;36.22;17.35;;;;;;;0.14;92.04;102964.53;5008951;28;20037;-74
2022/01/11 03:06:24;;;;;;;39.05;20.00;;;;;;;0.13;91.93;102967.16;5009130;28;20029;-74
2022/01/11 03:08:49;;;;;;;37.35;18.75;;;;;;;0.13;91.65;102967.16;4990730;28;20030;-74
2022/01/11 03:11:17;;;;;;;41.50;20.83;;;;;;;0.11;92.15;102961.88;5008343;28;20069;-74
2022/01/11 03:13:43;;;;;;;39.38;20.33;;;;;;;0.14;92.29;102968.94;4990830;28;20037;-74
2022/01/11 03:16:10;;;;;;;35.55;18.75;;;;;;;0.14;92.01;102968.94;5013830;28;20040;-74
2022/01/11 03:18:36;;;;;;;38.10;20.25;;;;;;;0.11;91.99;102966.28;5008600;28;20033;-74
2022/01/11 03:21:02;;;;;;;39.58;20.77;;;;;;;0.10;91.94;102968.06;5007368;28;20033;-74
2022/01/11 03:23:28;;;;;;;36.22;18.42;;;;;;;0.09;92.00;102968.91;5008331;28;20118;-73
2022/01/11 03:25:53;;;;;;;35.65;18.17;;;;;;;0.09;91.79;102970.66;5008479;28;20205;-73
2022/01/11 03:28:20;;;;;;;37.08;18.08;;;;;;;0.10;91.60;102967.16;5008135;28;20045;-73
2022/01/11 03:30:47;;;;;;;34.10;16.85;;;;;;;0.12;91.96;102968.06;5012615;28;20092;-73
2022/01/11 03:33:12;;;;;;;37.90;18.02;;;;;;;0.08;91.37;102963.63;5024286;28;20060;-73
2022/01/11 03:35:38;;;;;;;32.78;18.70;;;;;;;0.06;91.06;102960.06;5007752;28;20021;-73
2022/01/11 03:38:06;;;;;;;37.17;17.80;;;;;;;0.04;91.12;102961.84;5007819;28;20116;-73
2022/01/11 03:40:31;;;;;;;35.03;16.85;;;;;;;0.04;91.15;102957.41;5010011;28;20030;-73
2022/01/11 03:42:57;;;;;;;39.38;17.15;;;;;;;0.04;91.49;102964.47;4990597;28;20036;-73
2022/01/11 03:45:24;;;;;;;32.17;17.25;;;;;;;0.03;91.36;102965.34;4990517;28;20037;-73
2022/01/11 03:47:51;;;;;;;34.55;17.77;;;;;;;0.01;91.38;102956.53;5027118;28;20021;-73
2022/01/11 03:50:18;;;;;;;36.03;15.75;;;;;;;0.03;91.16;102950.41;5027687;28;20404;-73
2022/01/11 03:52:44;;;;;;;38.28;18.83;;;;;;;0.01;91.18;102953.91;5006919;28;20018;-73
2022/01/11 03:55:13;;;;;;;39.50;19.02;;;;;;;-0.01;91.68;102954.75;5009053;28;20029;-73
2022/01/11 03:57:40;;;;;;;34.97;15.85;;;;;;;-0.02;91.19;102954.75;5007963;28;20367;-73
2022/01/11 04:00:10;;;;;;;36.33;17.33;;;;;;;-0.04;91.06;102953.88;5008209;28;20028;-73
2022/01/11 04:02:35;;;;;;;;;;;;;;;0.04;91.23;102951.25;5023213;28;20111;-73
2022/01/11 04:05:01;;;;;;;32.05;14.73;;;;;;;-0.08;90.80;102960.91;5008977;28;19944;-74
2022/01/11 04:07:27;;;;;;;32.78;16.10;;;;;;;-0.11;91.14;102960.00;5008637;28;20433;-74
2022/01/11 04:09:55;;;;;;;35.22;17.38;;;;;;;-0.14;91.52;102963.50;5012105;28;20062;-74
2022/01/11 04:12:21;;;;;;;34.60;17.90;;;;;;;-0.13;91.31;102964.38;4993719;28;20061;-73
2022/01/11 04:14:46;;;;;;;35.72;18.13;;;;;;;-0.14;91.28;102974.09;5011648;28;20445;-74
2022/01/11 04:17:12;;;;;;;34.67;17.13;;;;;;;-0.14;91.23;102978.50;4994516;28;20033;-74
2022/01/11 04:19:37;;;;;;;37.30;16.13;;;;;;;-0.16;90.88;102967.91;5012160;28;20050;-74
2022/01/11 04:22:03;;;;;;;33.50;16.67;;;;;;;-0.15;91.54;102972.31;5012322;28;20026;-74
2022/01/11 04:24:29;;;;;;;34.85;16.52;;;;;;;-0.16;91.04;102981.13;4993436;28;20041;-74
2022/01/11 04:26:54;;;;;;;36.78;17.55;;;;;;;-0.15;90.99;102972.31;4992238;28;20459;-73
2022/01/11 04:29:20;;;;;;;31.65;16.33;;;;;;;-0.16;90.98;102967.91;4987427;28;20092;-73
2022/01/11 04:31:45;;;;;;;35.47;16.60;;;;;;;-0.17;90.71;102970.56;5022955;28;20037;-73
2022/01/11 04:34:11;;;;;;;33.17;16.77;;;;;;;-0.23;90.72;102980.19;5013294;28;20056;-73
2022/01/11 04:36:37;;;;;;;40.83;18.65;;;;;;;-0.27;90.98;102985.47;5012626;28;20040;-73
2022/01/11 04:39:08;;;;;;;32.75;16.13;;;;;;;-0.29;91.26;102985.44;5019639;28;20359;-73
2022/01/11 04:41:33;;;;;;;32.65;16.13;;;;;;;-0.26;91.18;102997.81;5011136;28;20029;-73
2022/01/11 04:43:58;;;;;;;33.72;17.77;;;;;;;-0.27;90.96;102985.47;5012081;28;20434;-73
2022/01/11 04:46:26;;;;;;;30.80;15.77;;;;;;;-0.27;91.26;102983.69;5017494;28;20037;-73
2022/01/11 04:48:51;;;;;;;31.33;16.33;;;;;;;-0.29;90.92;102979.25;5003572;28;20030;-73
2022/01/11 04:51:16;;;;;;;33.20;16.35;;;;;;;-0.33;90.54;102983.66;5010198;28;20037;-73
2022/01/11 04:53:42;;;;;;;31.42;14.68;;;;;;;-0.37;90.63;102984.50;5010833;28;20045;-73
2022/01/11 04:56:08;;;;;;;32.35;16.85;;;;;;;-0.37;91.10;102984.50;4992713;28;20450;-73
2022/01/11 04:58:34;;;;;;;34.60;16.88;;;;;;;-0.36;91.34;102986.28;5010097;28;20169;-73
2022/01/11 05:00:59;;;;;;;34.70;18.00;;;;;;;-0.39;91.13;102976.56;4997433;28;20045;-73
2022/01/11 05:03:24;;;;;;;33.78;16.30;;;;;;;-0.42;91.20;102973.91;5030448;28;20373;-74
2022/01/11 05:05:50;;;;;;;34.00;16.50;;;;;;;-0.45;91.26;102965.97;5012071;28;20048;-74
2022/01/11 05:08:15;;;;;;;32.78;15.07;;;;;;;-0.42;91.12;102968.63;5025966;28;20669;-74
2022/01/11 05:10:44;;;;;;;33.28;16.60;;;;;;;-0.44;91.08;102975.66;5010810;28;20034;-73
2022/01/11 05:13:14;;;;;;;33.13;16.02;;;;;;;-0.47;91.42;102980.94;5010324;28;20057;-73
2022/01/11 05:15:41;;;;;;;39.08;16.83;;;;;;;-0.49;91.09;102974.75;4993315;28;20394;-73
2022/01/11 05:18:07;;;;;;;34.00;16.67;;;;;;;-0.48;91.04;102976.50;5012870;28;20037;-73
2022/01/11 05:20:33;;;;;;;35.75;17.52;;;;;;;-0.49;90.97;102972.09;5029273;28;20053;-73
2022/01/11 05:22:59;;;;;;;36.47;18.25;;;;;;;-0.48;91.12;102972.97;4992731;28;20057;-73
2022/01/11 05:25:24;;;;;;;34.58;18.60;;;;;;;-0.48;90.86;102973.88;5010561;28;20092;-73
2022/01/11 05:27:49;;;;;;;37.90;18.08;;;;;;;-0.51;90.69;102960.66;5010649;28;20026;-73
2022/01/11 05:30:15;;;;;;;33.63;16.52;;;;;;;-0.52;91.07;102961.50;5010961;28;20080;-73
2022/01/11 05:32:42;;;;;;;37.83;19.00;;;;;;;-0.54;90.63;102958.88;5027703;28;20390;-74
2022/01/11 05:35:10;;;;;;;35.67;18.25;;;;;;;-0.54;90.48;102958.88;5011121;28;20034;-74
2022/01/11 05:37:35;;;;;;;33.83;18.58;;;;;;;-0.55;90.82;102975.56;5005909;28;20025;-74
2022/01/11 05:40:00;;;;;;;40.67;19.75;;;;;;;-0.55;90.42;102966.78;4992968;28;20044;-73
2022/01/11 05:42:27;;;;;;;38.97;19.77;;;;;;;-0.59;90.85;102965.84;4994175;28;20394;-73
2022/01/11 05:44:52;;;;;;;36.72;18.00;;;;;;;-0.60;90.71;102963.19;5008866;28;20109;-73
2022/01/11 05:47:17;;;;;;;38.80;19.95;;;;;;;-0.61;90.71;102966.75;4997268;28;20120;-73
2022/01/11 05:49:43;;;;;;;41.03;19.80;;;;;;;-0.63;90.45;102973.75;5010047;28;20041;-73
2022/01/11 05:52:08;;;;;;;36.33;17.45;;;;;;;-0.62;90.50;102981.69;5007971;28;20569;-73
2022/01/11 05:54:33;;;;;;;36.95;18.42;;;;;;;-0.62;90.70;102981.69;5008572;28;20065;-73
2022/01/11 05:57:00;;;;;;;36.72;18.00;;;;;;;-0.63;90.34;102981.66;4997669;28;20113;-73
2022/01/11 05:59:25;;;;;;;36.08;18.35;;;;;;;-0.62;90.58;102980.81;5009030;28;20030;-73
2022/01/11 06:01:50;;;;;;;35.15;17.20;;;;;;;-0.63;90.71;102989.59;4994828;28;20044;-73
2022/01/11 06:04:16;;;;;;;38.08;21.58;;;;;;;-0.62;90.41;102999.28;5009834;28;20040;-74
2022/01/11 06:06:41;;;;;;;40.90;18.95;;;;;;;-0.63;90.56;103008.97;4992043;28;20401;-73
2022/01/11 06:09:07;;;;;;;37.13;19.08;;;;;;;-0.65;90.32;103004.56;5010077;28;20390;-73
2022/01/11 06:11:32;;;;;;;36.38;16.92;;;;;;;-0.64;90.53;103008.97;5009197;28;20049;-73
2022/01/11 06:13:57;;;;;;;35.53;16.88;;;;;;;-0.64;90.09;103016.91;4996506;28;20418;-73
2022/01/11 06:16:22;;;;;;;38.58;18.00;;;;;;;-0.65;90.18;103017.75;4998948;28;20101;-74
2022/01/11 06:18:49;;;;;;;33.40;17.38;;;;;;;-0.64;90.50;103016.91;5024591;28;20029;-74
2022/01/11 06:21:14;;;;;;;40.00;17.98;;;;;;;-0.64;90.19;103020.41;5009184;28;20068;-74
2022/01/11 06:23:40;;;;;;;35.30;17.98;;;;;;;-0.63;90.21;103026.56;4991824;28;20414;-74
2022/01/11 06:26:05;;;;;;;36.28;18.15;;;;;;;-0.63;89.84;103026.56;4991805;28;20041;-73
2022/01/11 06:28:30;;;;;;;38.63;18.85;;;;;;;-0.65;89.68;103025.69;5010937;28;20037;-73
2022/01/11 06:30:56;;;;;;;35.92;17.30;;;;;;;-0.63;90.19;103037.13;5022329;28;20394;-73
2022/01/11 06:33:21;;;;;;;38.10;17.27;;;;;;;-0.63;89.45;103029.19;4990448;28;20065;-73
2022/01/11 06:35:46;;;;;;;36.58;16.92;;;;;;;-0.65;89.79;103042.41;5008654;28;20061;-73
2022/01/11 06:38:12;;;;;;;37.00;16.35;;;;;;;-0.68;89.46;103034.44;4991011;28;20026;-73
2022/01/11 06:40:38;;;;;;;33.90;16.17;;;;;;;-0.68;89.76;103034.44;5008170;28;20026;-73
2022/01/11 06:43:03;;;;;;;36.80;18.13;;;;;;;-0.68;89.51;103041.50;4993618;28;20103;-73
2022/01/11 06:45:29;;;;;;;40.28;18.65;;;;;;;-0.70;89.54;103041.50;5000888;28;20115;-73
2022/01/11 06:47:54;;;;;;;39.00;17.05;;;;;;;-0.72;89.29;103043.22;4978857;28;20041;-73
2022/01/11 06:50:20;;;;;;;32.28;15.73;;;;;;;-0.74;89.36;103048.47;4989828;28;20030;-73
2022/01/11 06:52:46;;;;;;;32.88;14.95;;;;;;;-0.75;89.25;103053.75;4990119;28;20359;-73
2022/01/11 06:55:12;;;;;;;34.08;17.70;;;;;;;-0.74;89.62;103055.53;5008603;28;20034;-73
2022/01/11 06:57:37;;;;;;;34.33;16.20;;;;;;;-0.76;89.74;103050.22;5008446;28;20030;-73
2022/01/11 07:00:06;;;;;;;32.47;15.50;;;;;;;-0.78;89.21;103044.03;4995029;28;20442;-73
2022/01/11 07:02:31;;;;;;;38.40;17.13;;;;;;;-0.77;89.45;103042.31;5009795;28;20029;-73
2022/01/11 07:04:57;;;;;;;34.90;16.50;;;;;;;-0.78;89.49;103044.03;4996690;28;20347;-74
2022/01/11 07:07:22;;;;;;;33.47;15.82;;;;;;;-0.76;89.63;103041.41;4990553;28;20056;-74
2022/01/11 07:09:47;;;;;;;35.45;16.45;;;;;;;-0.77;89.41;103045.81;5021115;28;20061;-74
2022/01/11 07:12:13;;;;;;;32.00;15.00;;;;;;;-0.74;89.29;103053.75;5014261;28;20046;-74
2022/01/11 07:14:39;;;;;;;33.33;15.65;;;;;;;-0.77;89.33;103055.50;4990858;28;20078;-74
2022/01/11 07:17:04;;;;;;;32.80;15.85;;;;;;;-0.79;89.00;103055.50;4999196;28;20026;-74
2022/01/11 07:19:30;;;;;;;38.30;16.08;;;;;;;-0.80;89.06;103066.03;5001340;28;20137;-74
2022/01/11 07:21:59;;;;;;;32.67;15.63;;;;;;;-0.79;89.08;103063.41;5007256;28;20053;-73
2022/01/11 07:24:25;;;;;;;32.90;16.33;;;;;;;-0.83;88.93;103066.88;5005716;28;20030;-73
2022/01/11 07:26:50;;;;;;;35.85;17.83;;;;;;;-0.84;89.34;103078.31;5017231;28;20386;-73
2022/01/11 07:29:16;;;;;;;31.17;15.07;;;;;;;-0.84;89.42;103080.94;5007950;28;20030;-73
2022/01/11 07:31:41;;;;;;;33.00;15.43;;;;;;;-0.83;89.14;103077.44;5009347;28;20516;-73
2022/01/11 07:34:07;;;;;;;33.45;15.23;;;;;;;-0.83;89.12;103084.50;5004880;28;20033;-73
2022/01/11 07:36:34;;;;;;;34.22;15.60;;;;;;;-0.81;89.11;103083.63;5004489;28;20069;-73
2022/01/11 07:38:59;;;;;;;35.58;16.77;;;;;;;-0.81;89.21;103094.16;4989118;28;20029;-73
2022/01/11 07:41:24;;;;;;;32.63;16.98;;;;;;;-0.80;88.93;103093.31;4989046;28;20044;-73
2022/01/11 07:43:50;;;;;;;31.00;15.18;;;;;;;-0.79;89.02;103089.81;4994468;28;20401;-73
2022/01/11 07:46:15;;;;;;;30.42;15.35;;;;;;;-0.78;88.93;103091.56;5015670;28;20029;-73
2022/01/11 07:48:41;;;;;;;34.20;17.17;;;;;;;-0.78;88.45;103095.97;5006973;28;20030;-73
2022/01/11 07:51:06;;;;;;;33.25;15.80;;;;;;;-0.78;88.62;103102.13;5022259;28;20030;-73
2022/01/11 07:53:32;;;;;;;31.35;15.50;;;;;;;-0.79;88.98;103100.38;4994119;28;20411;-73
2022/01/11 07:55:57;;;;;;;37.13;16.45;;;;;;;-0.77;88.56;103095.09;5002411;28;20490;-73
2022/01/11 07:58:23;;;;;;;36.53;16.95;;;;;;;-0.76;88.45;103100.41;5011552;28;20068;-74
2022/01/11 08:00:48;;;;;;;32.97;15.57;;;;;;;-0.75;88.95;103104.81;4986327;28;20077;-73
2022/01/11 08:03:14;;;;;;;32.08;14.65;;;;;;;-0.74;88.51;103101.28;4991455;28;20128;-74
2022/01/11 08:05:39;;;;;;;33.53;15.68;;;;;;;-0.72;88.76;103107.50;4990472;28;20021;-74
2022/01/11 08:08:05;;;;;;;33.53;14.73;;;;;;;-0.69;88.39;103100.47;5008974;28;20052;-73
2022/01/11 08:10:31;;;;;;;32.83;16.30;;;;;;;-0.69;88.42;103100.47;5010784;28;20034;-73
2022/01/11 08:12:56;;;;;;;33.42;14.95;;;;;;;-0.68;88.65;103094.31;5019178;28;20564;-73
2022/01/11 08:15:21;;;;;;;31.13;15.57;;;;;;;-0.67;88.24;103090.78;5008951;28;20418;-73
2022/01/11 08:17:47;;;;;;;35.33;16.63;;;;;;;-0.63;88.32;103095.22;5011143;28;20034;-73
2022/01/11 08:20:13;;;;;;;34.97;15.80;;;;;;;-0.60;88.32;103100.53;5007650;28;20080;-73
2022/01/11 08:22:38;;;;;;;30.27;14.90;;;;;;;-0.57;88.50;103103.19;5012281;28;20068;-73
2022/01/11 08:25:05;;;;;;;30.58;14.32;;;;;;;-0.52;88.68;103104.16;5007918;28;20066;-73
2022/01/11 08:27:30;;;;;;;34.35;14.98;;;;;;;-0.47;88.68;103105.09;5010377;28;20037;-73
2022/01/11 08:29:55;;;;;;;28.90;14.00;;;;;;;-0.43;88.72;103101.59;5014718;28;20030;-73
2022/01/11 08:32:21;;;;;;;32.90;14.85;;;;;;;-0.39;88.87;103107.78;5008878;28;20457;-74
2022/01/11 08:34:46;;;;;;;31.13;14.95;;;;;;;-0.32;88.67;103103.44;4991989;28;20038;-74
2022/01/11 08:37:12;;;;;;;32.17;15.30;;;;;;;-0.27;88.61;103099.97;5008106;28;20478;-74
2022/01/11 08:39:38;;;;;;;31.15;15.63;;;;;;;-0.21;88.20;103104.41;4990194;28;20026;-74
2022/01/11 08:42:04;;;;;;;32.30;14.35;;;;;;;-0.17;88.27;103102.69;5009330;28;20033;-74
2022/01/11 08:44:29;;;;;;;27.48;13.02;;;;;;;-0.13;88.58;103102.72;5007647;28;20034;-73
2022/01/11 08:46:54;;;;;;;30.25;13.82;;;;;;;-0.09;88.31;103104.53;5010054;28;20057;-73
2022/01/11 08:49:21;;;;;;;29.23;13.93;;;;;;;-0.06;88.32;103104.53;5008845;28;20119;-74
2022/01/11 08:51:46;;;;;;;31.42;13.57;;;;;;;0.01;87.85;103104.59;4992914;28;20030;-74
2022/01/11 08:54:12;;;;;;;27.65;13.63;;;;;;;0.04;88.68;103104.59;5008708;28;20077;-74
2022/01/11 08:56:38;;;;;;;30.65;14.85;;;;;;;0.09;88.58;103116.06;5007658;28;20140;-74
2022/01/11 08:59:06;;;;;;;30.58;14.75;;;;;;;0.15;88.45;103110.84;5012141;28;20055;-74
2022/01/11 09:01:34;;;;;;;28.52;13.73;;;;;;;0.20;88.39;103111.75;5013831;28;20393;-74
2022/01/11 09:04:00;;;;;;;29.98;13.45;;;;;;;0.21;88.45;103113.53;5006386;28;20034;-74
2022/01/11 09:06:25;;;;;;;31.95;14.75;;;;;;;0.26;87.79;103121.50;4987873;28;20481;-74
2022/01/11 09:08:50;;;;;;;32.72;14.13;;;;;;;0.26;87.39;103122.38;5008872;28;20049;-74
2022/01/11 09:11:16;;;;;;;30.05;13.05;;;;;;;0.33;88.03;103129.47;4993983;28;20616;-73
2022/01/11 09:13:41;;;;;;;31.42;12.88;;;;;;;0.36;87.98;103125.97;5006589;28;20063;-73
2022/01/11 09:16:07;;;;;;;27.52;14.27;;;;;;;0.41;87.14;103124.25;5006253;28;20501;-73
2022/01/11 09:18:33;;;;;;;29.42;14.20;;;;;;;0.45;87.43;103122.50;5011580;28;20117;-73
2022/01/11 09:21:00;;;;;;;31.15;13.40;;;;;;;0.50;87.62;103120.78;4990100;28;20106;-73
2022/01/11 09:23:27;;;;;;;33.00;14.25;;;;;;;0.55;87.48;103123.44;4989389;28;20075;-73
2022/01/11 09:25:52;;;;;;;27.83;11.93;;;;;;;0.60;87.69;103126.97;5011875;28;20036;-73
2022/01/11 09:28:17;;;;;;;26.25;13.02;;;;;;;0.64;86.98;103129.63;4988451;28;20065;-73
2022/01/11 09:30:43;;;;;;;27.88;12.32;;;;;;;0.69;86.73;103127.91;5009283;28;20029;-73
2022/01/11 09:33:08;;;;;;;28.15;12.75;;;;;;;0.75;87.49;103131.44;5012925;28;20053;-73
2022/01/11 09:35:34;;;;;;;32.67;13.68;;;;;;;0.80;87.11;103129.72;4988223;28;20030;-73
2022/01/11 09:37:59;;;;;;;30.08;12.85;;;;;;;0.84;86.99;103134.16;4987535;28;20164;-73
2022/01/11 09:40:24;;;;;;;30.35;14.32;;;;;;;0.88;87.12;103138.59;4990004;28;20569;-73
2022/01/11 09:42:49;;;;;;;30.30;13.55;;;;;;;0.94;86.95;103135.06;4989056;28;20044;-73
2022/01/11 09:45:15;;;;;;;29.17;12.23;;;;;;;0.98;86.29;103145.69;5012577;28;20041;-73
2022/01/11 09:47:42;;;;;;;31.67;13.52;;;;;;;1.02;86.08;103144.81;5012384;28;20064;-73
2022/01/11 09:50:10;;;;;;;28.98;11.85;;;;;;;1.06;86.13;103150.13;5006507;28;20038;-73
2022/01/11 09:52:36;;;;;;;27.95;13.48;;;;;;;1.11;85.78;103143.06;5005503;28;20040;-73
2022/01/11 09:55:04;;;;;;;31.13;12.98;;;;;;;1.12;85.08;103147.50;4997004;28;20041;-74
2022/01/11 09:57:29;;;;;;;30.92;13.30;;;;;;;1.14;84.67;103151.03;5009992;28;20057;-74
2022/01/11 09:59:54;;;;;;;25.65;12.02;;;;;;;1.17;85.57;103151.03;5010843;28;20061;-74
2022/01/11 10:02:20;;;;;;;27.73;12.75;;;;;;;1.21;85.20;103155.47;5008454;28;20033;-73
2022/01/11 10:04:45;;;;;;;31.27;12.48;;;;;;;1.27;85.54;103158.13;5005443;28;20087;-73
2022/01/11 10:07:13;;;;;;;28.10;12.00;;;;;;;1.33;85.68;103154.63;4989166;28;20041;-74
2022/01/11 10:09:49;;;;;;;28.85;13.40;;;;;;;1.39;85.96;103157.28;5007817;28;20087;-73
2022/01/11 10:12:18;;;;;;;29.23;12.88;;;;;;;1.43;85.31;103158.19;4987884;28;20081;-73
2022/01/11 10:14:49;;;;;;;27.20;11.27;;;;;;;1.46;84.17;103148.44;4989164;28;20018;-73
2022/01/11 10:17:42;;;;;;;26.83;11.50;;;;;;;1.55;84.82;103158.19;5004611;28;20038;-73
2022/01/11 10:20:15;;;;;;;28.27;11.38;;;;;;;1.57;84.01;103157.31;5002426;28;20037;-74
2022/01/11 10:23:00;;;;;;;25.88;11.95;;;;;;;1.62;84.30;103159.97;5006760;28;20048;-74
2022/01/11 10:25:28;;;;;;;24.80;10.27;;;;;;;1.67;84.41;103157.31;4987799;28;20072;-73
2022/01/11 10:28:03;;;;;;;28.10;12.60;;;;;;;1.71;84.30;103154.69;5006561;28;20117;-73
2022/01/11 10:30:30;;;;;;;26.77;11.38;;;;;;;1.75;83.71;103153.78;5009426;28;20148;-73
2022/01/11 10:33:00;;;;;;;27.65;12.40;;;;;;;1.78;84.00;103147.63;4986930;28;20025;-73
2022/01/11 10:35:42;;;;;;;;;;;;;;;1.87;85.14;103150.25;5009556;28;20029;-73
2022/01/11 10:38:10;;;;;;;25.60;11.43;;;;;;;1.85;83.83;103154.69;5005171;28;19978;-73
2022/01/11 10:40:39;;;;;;;28.52;11.65;;;;;;;1.88;83.40;103157.34;5004908;28;20037;-73
2022/01/11 10:43:11;;;;;;;25.92;12.52;;;;;;;1.91;83.40;103156.47;5015224;28;20025;-73
2022/01/11 10:45:39;;;;;;;25.05;11.88;;;;;;;1.98;83.94;103155.59;4993072;28;20049;-74
2022/01/11 10:48:10;;;;;;;26.38;11.85;;;;;;;2.00;83.33;103159.09;5005785;28;20064;-73
2022/01/11 10:50:42;;;;;;;25.50;11.77;;;;;;;2.05;83.64;103160.00;5005322;28;20044;-73
2022/01/11 10:53:23;;;;;;;25.95;11.32;;;;;;;2.09;84.25;103159.13;4986379;28;20018;-73
2022/01/11 10:55:51;;;;;;;25.90;11.45;;;;;;;2.13;82.55;103161.78;5019308;28;20115;-73
2022/01/11 10:58:17;;;;;;;30.65;12.07;;;;;;;2.15;83.29;103160.00;4988785;28;20183;-73
2022/01/11 11:00:47;;;;;;;25.15;11.88;;;;;;;2.19;83.10;103159.09;5008943;28;20366;-73
2022/01/11 11:03:24;;;;;;;29.77;12.60;;;;;;;2.23;83.65;103158.22;4986702;28;20124;-74
2022/01/11 11:05:53;;;;;;;23.70;10.15;;;;;;;2.24;83.68;103159.97;5014755;28;20441;-74
2022/01/11 11:08:22;;;;;;;26.23;11.38;;;;;;;2.27;83.58;103152.03;5008390;28;20111;-73
2022/01/11 11:11:10;;;;;;;26.35;11.80;;;;;;;2.28;83.12;103156.44;4989531;28;20021;-74